Forsyth, New York
Current Conditions -  °F | °C
As of 4:15 AM on Wednesday 22 Oct 2014 (Local Time) from KJHW Reporting Station
Overcast Overcast  
Wind Chill: 33°   Ceiling: 200
Heat Index: 41°   Visibility: 0.75mi
Dew Point: 39°   Wind: 14mph
Humidity: 93%   Direction: 10°N
Pressure: 30.08"   Gusts: 17mph
Location:  42.2181°N, 79.7072°W
Report Text: KJHW 220815Z AUTO 01012G15KT 3/4SM OVC002 05/04 A3008 RMK AO1
Loading
Personal Weather Stations






























Interactive Weather Map
Tropical Storm Tracking
New forecast layout! Learn more

10-Day Weather Forecast

Advertisements
Track Severe Weather on mobile